createdAt,value
2022-09-15T00:00:26.847Z,0.00
2022-09-15T00:01:26.914Z,0.00
2022-09-15T00:02:26.976Z,0.00
2022-09-15T00:03:26.808Z,0.00
2022-09-15T00:04:26.785Z,0.00
2022-09-15T00:05:26.790Z,0.00
2022-09-15T00:06:26.794Z,0.00
2022-09-15T00:07:26.834Z,0.00
2022-09-15T00:08:26.751Z,0.00
2022-09-15T00:09:26.785Z,0.00
2022-09-15T00:10:26.714Z,0.00
2022-09-15T00:11:26.736Z,0.00
2022-09-15T00:12:26.755Z,0.00
2022-09-15T00:13:26.744Z,0.00
2022-09-15T00:14:26.699Z,0.00
2022-09-15T00:15:26.680Z,0.00
2022-09-15T00:16:26.701Z,0.00
2022-09-15T00:17:26.708Z,0.00
2022-09-15T00:18:26.661Z,0.00
2022-09-15T00:19:26.647Z,0.00
2022-09-15T00:20:26.633Z,0.00
2022-09-15T00:21:26.627Z,0.00
2022-09-15T00:22:26.638Z,0.00
2022-09-15T00:23:26.578Z,0.00
2022-09-15T00:24:26.570Z,0.00
2022-09-15T00:25:26.583Z,0.00
2022-09-15T00:26:26.555Z,0.00
2022-09-15T00:27:26.581Z,0.00
2022-09-15T00:28:26.541Z,0.00
2022-09-15T00:29:26.528Z,0.00
2022-09-15T00:30:26.559Z,0.00
2022-09-15T00:31:26.549Z,0.00
2022-09-15T00:32:26.518Z,0.00
2022-09-15T00:33:26.473Z,0.00
2022-09-15T00:34:26.448Z,0.00
2022-09-15T00:35:26.438Z,0.00
2022-09-15T00:36:26.438Z,0.00
2022-09-15T00:37:26.454Z,0.00
2022-09-15T00:38:26.415Z,0.00
2022-09-15T00:39:26.463Z,0.00
2022-09-15T00:40:26.462Z,0.00
2022-09-15T00:41:26.375Z,0.00
2022-09-15T00:42:26.400Z,0.00
2022-09-15T00:43:26.358Z,0.00
2022-09-15T00:44:26.355Z,0.00
2022-09-15T00:45:26.357Z,0.00
2022-09-15T00:46:26.324Z,0.00
2022-09-15T00:47:26.371Z,0.00
2022-09-15T00:48:26.314Z,0.00
2022-09-15T00:49:26.291Z,0.00
2022-09-15T00:50:26.295Z,0.00
2022-09-15T00:51:26.281Z,0.00
2022-09-15T00:52:26.295Z,0.00
2022-09-15T00:53:26.255Z,0.00
2022-09-15T00:54:26.277Z,0.00
2022-09-15T00:55:26.246Z,0.00
2022-09-15T00:56:26.212Z,0.00
2022-09-15T00:57:26.237Z,0.00
2022-09-15T00:58:26.201Z,0.00
2022-09-15T00:59:26.178Z,0.00
2022-09-15T01:00:26.175Z,0.00
2022-09-15T01:01:26.194Z,0.00
2022-09-15T01:02:26.247Z,0.00
2022-09-15T01:03:26.138Z,0.00
2022-09-15T01:04:26.138Z,0.00
2022-09-15T01:05:26.112Z,0.00
2022-09-15T01:06:26.080Z,0.00
2022-09-15T01:07:26.102Z,0.00
2022-09-15T01:08:26.060Z,0.00
2022-09-15T01:09:26.065Z,0.00
2022-09-15T01:10:26.057Z,0.00
2022-09-15T01:11:26.048Z,0.00
2022-09-15T01:12:26.084Z,0.00
2022-09-15T01:13:26.031Z,0.00
2022-09-15T01:14:26.018Z,0.00
2022-09-15T01:15:25.983Z,0.00
2022-09-15T01:16:26.062Z,0.00
2022-09-15T01:17:26.015Z,0.00
2022-09-15T01:18:25.982Z,0.00
2022-09-15T01:19:25.951Z,0.00
2022-09-15T01:20:25.958Z,0.00
2022-09-15T01:21:25.933Z,0.00
2022-09-15T01:22:25.963Z,0.00
2022-09-15T01:23:25.913Z,0.00
2022-09-15T01:24:25.908Z,0.00
2022-09-15T01:25:25.897Z,0.00
2022-09-15T01:26:25.878Z,0.00
2022-09-15T01:27:41.609Z,0.00
2022-09-15T01:28:26.855Z,0.00
2022-09-15T01:29:25.858Z,0.00
2022-09-15T01:30:25.834Z,0.00
2022-09-15T01:31:25.894Z,0.00
2022-09-15T01:32:25.845Z,0.00
2022-09-15T01:33:25.791Z,0.00
2022-09-15T01:34:25.804Z,0.00
2022-09-15T01:35:25.766Z,0.00
2022-09-15T01:36:25.779Z,0.00
2022-09-15T01:37:25.798Z,0.00
2022-09-15T01:38:25.738Z,0.00
2022-09-15T01:39:25.741Z,0.00
2022-09-15T01:40:25.795Z,0.00
2022-09-15T01:41:25.702Z,0.00
2022-09-15T01:42:25.737Z,0.00
2022-09-15T01:43:25.682Z,0.00
2022-09-15T01:44:25.686Z,0.00
2022-09-15T01:45:25.678Z,0.00
2022-09-15T01:46:25.646Z,0.00
2022-09-15T01:47:25.668Z,0.00
2022-09-15T01:48:25.632Z,0.00
2022-09-15T01:49:25.626Z,0.00
2022-09-15T01:50:25.609Z,0.00
2022-09-15T01:51:25.583Z,0.00
2022-09-15T01:52:25.636Z,0.00
2022-09-15T01:53:25.565Z,0.00
2022-09-15T01:54:25.579Z,0.00
2022-09-15T01:55:25.549Z,0.00
2022-09-15T01:56:25.548Z,0.00
2022-09-15T01:57:25.583Z,0.00
2022-09-15T01:58:25.526Z,0.00
2022-09-15T01:59:25.505Z,0.00
2022-09-15T02:00:25.491Z,0.00
2022-09-15T02:01:25.563Z,0.00
2022-09-15T02:02:25.566Z,0.00
2022-09-15T02:03:25.460Z,0.00
2022-09-15T02:04:25.465Z,0.00
2022-09-15T02:05:25.454Z,0.00
2022-09-15T02:06:25.426Z,0.00
2022-09-15T02:07:25.447Z,0.00
2022-09-15T02:08:25.455Z,0.00
2022-09-15T02:09:25.384Z,0.00
2022-09-15T02:10:25.380Z,0.00
2022-09-15T02:11:25.345Z,0.00
2022-09-15T02:12:25.395Z,0.00
2022-09-15T02:13:25.349Z,0.00
2022-09-15T02:14:25.358Z,0.00
2022-09-15T02:15:25.326Z,0.00
2022-09-15T02:16:25.372Z,0.00
2022-09-15T02:17:25.325Z,0.00
2022-09-15T02:18:25.291Z,0.00
2022-09-15T02:19:25.282Z,0.00
2022-09-15T02:20:25.269Z,0.00
2022-09-15T02:21:25.265Z,0.00
2022-09-15T02:22:25.298Z,0.00
2022-09-15T02:23:25.227Z,0.00
2022-09-15T02:24:25.231Z,0.00
2022-09-15T02:25:25.232Z,0.00
2022-09-15T02:26:25.212Z,0.00
2022-09-15T02:27:25.244Z,0.00
2022-09-15T02:28:25.189Z,0.00
2022-09-15T02:29:25.161Z,0.00
2022-09-15T02:30:25.152Z,0.00
2022-09-15T02:31:25.210Z,0.00
2022-09-15T02:32:25.178Z,0.00
2022-09-15T02:33:25.135Z,0.00
2022-09-15T02:34:25.103Z,0.00
2022-09-15T02:35:25.107Z,0.00
2022-09-15T02:36:26.059Z,0.00
2022-09-15T02:37:25.108Z,0.00
2022-09-15T02:38:25.062Z,0.00
2022-09-15T02:39:25.047Z,0.00
2022-09-15T02:40:25.077Z,0.00
2022-09-15T02:41:25.019Z,0.00
2022-09-15T02:42:25.051Z,0.00
2022-09-15T02:43:24.992Z,0.00
2022-09-15T02:44:25.015Z,0.00
2022-09-15T02:45:25.024Z,0.00
2022-09-15T02:46:24.960Z,0.00
2022-09-15T02:47:24.994Z,0.00
2022-09-15T02:48:24.945Z,0.00
2022-09-15T02:49:24.956Z,0.00
2022-09-15T02:50:24.923Z,0.00
2022-09-15T02:51:24.926Z,0.00
2022-09-15T02:52:24.953Z,0.00
2022-09-15T02:53:24.882Z,0.00
2022-09-15T02:54:24.874Z,0.00
2022-09-15T02:55:24.869Z,0.00
2022-09-15T02:56:24.860Z,0.00
2022-09-15T02:57:24.889Z,0.00
2022-09-15T02:58:24.846Z,0.00
2022-09-15T02:59:24.818Z,0.00
2022-09-15T03:00:24.806Z,0.00
2022-09-15T03:01:24.856Z,0.00
2022-09-15T03:02:24.921Z,0.00
2022-09-15T03:03:24.786Z,0.00
2022-09-15T03:04:24.765Z,0.00
2022-09-15T03:05:24.772Z,0.00
2022-09-15T03:06:24.745Z,0.00
2022-09-15T03:07:24.770Z,0.00
2022-09-15T03:08:24.739Z,0.00
2022-09-15T03:09:24.707Z,0.00
2022-09-15T03:10:24.733Z,0.00
2022-09-15T03:11:24.685Z,0.00
2022-09-15T03:12:24.701Z,0.00
2022-09-15T03:13:24.655Z,0.00
2022-09-15T03:14:24.643Z,0.00
2022-09-15T03:15:24.634Z,0.00
2022-09-15T03:16:24.694Z,0.00
2022-09-15T03:17:24.655Z,0.00
2022-09-15T03:18:24.610Z,0.00
2022-09-15T03:19:24.612Z,0.00
2022-09-15T03:20:24.588Z,0.00
2022-09-15T03:21:24.585Z,0.00
2022-09-15T03:22:24.626Z,0.00
2022-09-15T03:23:24.556Z,0.00
2022-09-15T03:24:24.550Z,0.00
2022-09-15T03:25:24.530Z,0.00
2022-09-15T03:26:24.517Z,0.00
2022-09-15T03:27:24.553Z,0.00
2022-09-15T03:28:24.507Z,0.00
2022-09-15T03:29:24.489Z,0.00
2022-09-15T03:30:24.496Z,0.00
2022-09-15T03:31:24.550Z,0.00
2022-09-15T03:32:24.494Z,0.00
2022-09-15T03:33:24.448Z,0.00
2022-09-15T03:34:24.434Z,0.00
2022-09-15T03:35:24.422Z,0.00
2022-09-15T03:36:24.408Z,0.00
2022-09-15T03:37:24.429Z,0.00
2022-09-15T03:38:24.389Z,0.00
2022-09-15T03:39:24.395Z,0.00
2022-09-15T03:40:24.494Z,0.00
2022-09-15T03:41:24.343Z,0.00
2022-09-15T03:42:24.378Z,0.00
2022-09-15T03:43:24.331Z,0.00
2022-09-15T03:44:24.305Z,0.00
2022-09-15T03:45:24.333Z,0.00
2022-09-15T03:46:24.285Z,0.00
2022-09-15T03:47:24.337Z,0.00
2022-09-15T03:48:24.264Z,0.00
2022-09-15T03:49:24.273Z,0.00
2022-09-15T03:50:24.257Z,0.00
2022-09-15T03:51:24.249Z,0.00
2022-09-15T03:52:24.273Z,0.00
2022-09-15T03:53:24.194Z,0.00
2022-09-15T03:54:24.203Z,0.00
2022-09-15T03:55:24.211Z,0.00
2022-09-15T03:56:24.168Z,0.00
2022-09-15T03:57:24.214Z,0.00
2022-09-15T03:58:26.845Z,0.00
2022-09-15T03:59:25.133Z,0.00
2022-09-15T04:00:24.150Z,0.00
2022-09-15T04:01:24.175Z,0.00
2022-09-15T04:02:24.260Z,0.00
2022-09-15T04:03:24.125Z,4.00
2022-09-15T04:04:24.088Z,4.00
2022-09-15T04:05:24.099Z,4.00
2022-09-15T04:06:24.085Z,0.00
2022-09-15T04:07:24.098Z,4.00
2022-09-15T04:08:24.062Z,4.00
2022-09-15T04:09:24.039Z,8.00
2022-09-15T04:10:24.051Z,8.00
2022-09-15T04:11:24.021Z,8.00
2022-09-15T04:12:24.041Z,12.00
2022-09-15T04:13:28.419Z,12.00
2022-09-15T04:14:23.975Z,16.00
2022-09-15T04:15:23.954Z,20.00
2022-09-15T04:16:24.040Z,20.00
2022-09-15T04:17:23.957Z,24.00
2022-09-15T04:18:23.939Z,28.00
2022-09-15T04:19:23.935Z,32.00
2022-09-15T04:20:23.918Z,40.00
2022-09-15T04:21:23.896Z,44.00
2022-09-15T04:22:23.912Z,52.00
2022-09-15T04:23:23.865Z,56.00
2022-09-15T04:24:23.872Z,64.00
2022-09-15T04:25:23.849Z,72.00
2022-09-15T04:26:23.850Z,80.00
2022-09-15T04:27:23.861Z,92.00
2022-09-15T04:28:23.813Z,104.00
2022-09-15T04:29:23.811Z,116.00
2022-09-15T04:30:23.796Z,128.00
2022-09-15T04:31:23.888Z,144.00
2022-09-15T04:32:23.814Z,160.00
2022-09-15T04:33:23.771Z,172.00
2022-09-15T04:34:23.753Z,196.00
2022-09-15T04:35:23.737Z,216.00
2022-09-15T04:36:23.755Z,240.00
2022-09-15T04:37:23.797Z,264.00
2022-09-15T04:38:23.716Z,292.00
2022-09-15T04:39:23.699Z,324.00
2022-09-15T04:40:23.771Z,352.00
2022-09-15T04:41:23.673Z,380.00
2022-09-15T04:42:23.706Z,404.00
2022-09-15T04:43:23.639Z,436.00
2022-09-15T04:44:23.624Z,472.00
2022-09-15T04:45:23.631Z,512.00
2022-09-15T04:46:23.663Z,552.00
2022-09-15T04:47:23.613Z,596.00
2022-09-15T04:48:23.589Z,644.00
2022-09-15T04:49:23.578Z,688.00
2022-09-15T04:50:23.577Z,744.00
2022-09-15T04:51:23.561Z,804.00
2022-09-15T04:52:23.570Z,876.00
2022-09-15T04:53:23.531Z,956.00
2022-09-15T04:54:23.533Z,1036.00
2022-09-15T04:55:23.498Z,1140.00
2022-09-15T04:56:23.498Z,1244.00
2022-09-15T04:57:23.508Z,1352.00
2022-09-15T04:58:23.487Z,1444.00
2022-09-15T04:59:23.471Z,1512.00
2022-09-15T05:00:23.473Z,1572.00
2022-09-15T05:01:23.508Z,1648.00
2022-09-15T05:02:23.529Z,1744.00
2022-09-15T05:03:23.430Z,1888.00
2022-09-15T05:04:23.413Z,2056.00
2022-09-15T05:05:23.387Z,2188.00
2022-09-15T05:06:23.388Z,2276.00
2022-09-15T05:07:23.419Z,2356.00
2022-09-15T05:08:23.371Z,2456.00
2022-09-15T05:09:23.363Z,2584.00
2022-09-15T05:10:23.349Z,2664.00
2022-09-15T05:11:23.332Z,2712.00
2022-09-15T05:12:23.368Z,2740.00
2022-09-15T05:13:23.310Z,2804.00
2022-09-15T05:14:23.289Z,2880.00
2022-09-15T05:15:23.292Z,2980.00
2022-09-15T05:16:23.346Z,3092.00
2022-09-15T05:17:26.685Z,3192.00
2022-09-15T05:18:23.269Z,3256.00
2022-09-15T05:19:23.247Z,3332.00
2022-09-15T05:20:23.217Z,3484.00
2022-09-15T05:21:23.213Z,3628.00
2022-09-15T05:22:23.219Z,3784.00
2022-09-15T05:23:23.271Z,3900.00
2022-09-15T05:24:23.191Z,3920.00
2022-09-15T05:25:23.177Z,3960.00
2022-09-15T05:26:23.158Z,4064.00
2022-09-15T05:27:23.155Z,4152.00
2022-09-15T05:28:23.178Z,4268.00
2022-09-15T05:29:23.136Z,4412.00
2022-09-15T05:30:37.749Z,4620.00
2022-09-15T05:31:24.166Z,4852.00
2022-09-15T05:32:23.095Z,4932.00
2022-09-15T05:33:23.116Z,4936.00
2022-09-15T05:34:23.068Z,5036.00
2022-09-15T05:35:23.050Z,5132.00
2022-09-15T05:36:23.048Z,5200.00
2022-09-15T05:37:23.036Z,5276.00
2022-09-15T05:38:23.060Z,5360.00
2022-09-15T05:39:23.017Z,5420.00
2022-09-15T05:40:23.123Z,5524.00
2022-09-15T05:41:22.984Z,5628.00
2022-09-15T05:42:22.960Z,5716.00
2022-09-15T05:43:23.004Z,5876.00
2022-09-15T05:44:22.933Z,5992.00
2022-09-15T05:45:22.954Z,6084.00
2022-09-15T05:46:22.964Z,6304.00
2022-09-15T05:47:22.935Z,6560.00
2022-09-15T05:48:22.932Z,6720.00
2022-09-15T05:49:22.892Z,6836.00
2022-09-15T05:50:22.864Z,7148.00
2022-09-15T05:51:22.874Z,7448.00
2022-09-15T05:52:22.857Z,7716.00
2022-09-15T05:53:22.896Z,7844.00
2022-09-15T05:54:22.854Z,7724.00
2022-09-15T05:55:22.826Z,7544.00
2022-09-15T05:56:22.840Z,7272.00
2022-09-15T05:57:22.794Z,6916.00
2022-09-15T05:58:22.822Z,6892.00
2022-09-15T05:59:22.798Z,7656.00
2022-09-15T06:00:22.772Z,8740.00
2022-09-15T06:01:22.848Z,9352.00
2022-09-15T06:02:22.797Z,9436.00
2022-09-15T06:03:24.487Z,9524.00
2022-09-15T06:04:22.728Z,9952.00
2022-09-15T06:05:22.711Z,10192.00
2022-09-15T06:06:22.712Z,10028.00
2022-09-15T06:07:22.689Z,9896.00
2022-09-15T06:08:22.726Z,9876.00
2022-09-15T06:09:22.703Z,9696.00
2022-09-15T06:10:22.677Z,9588.00
2022-09-15T06:11:22.646Z,9692.00
2022-09-15T06:12:22.612Z,9704.00
2022-09-15T06:13:22.651Z,9236.00
2022-09-15T06:14:22.599Z,8928.00
2022-09-15T06:15:22.613Z,8860.00
2022-09-15T06:16:22.681Z,8580.00
2022-09-15T06:17:22.596Z,7700.00
2022-09-15T06:18:22.626Z,6800.00
2022-09-15T06:19:22.558Z,6432.00
2022-09-15T06:20:22.527Z,6312.00
2022-09-15T06:21:22.519Z,6240.00
2022-09-15T06:22:22.526Z,6400.00
2022-09-15T06:23:22.518Z,6456.00
2022-09-15T06:24:22.534Z,6608.00
2022-09-15T06:25:22.509Z,6792.00
2022-09-15T06:26:22.461Z,6660.00
2022-09-15T06:27:22.471Z,6156.00
2022-09-15T06:28:22.448Z,5796.00
2022-09-15T06:29:22.484Z,5764.00
2022-09-15T06:30:22.435Z,6364.00
2022-09-15T06:31:22.462Z,7208.00
2022-09-15T06:32:22.405Z,7464.00
2022-09-15T06:33:22.394Z,7880.00
2022-09-15T06:34:22.418Z,8512.00
2022-09-15T06:35:22.386Z,9532.00
2022-09-15T06:36:22.385Z,10260.00
2022-09-15T06:37:22.350Z,10868.00
2022-09-15T06:38:22.350Z,11360.00
2022-09-15T06:39:22.386Z,11104.00
2022-09-15T06:40:22.381Z,10144.00
2022-09-15T06:41:22.320Z,9500.00
2022-09-15T06:42:22.299Z,9664.00
2022-09-15T06:43:22.290Z,9684.00
2022-09-15T06:44:22.333Z,9120.00
2022-09-15T06:45:22.275Z,8348.00
2022-09-15T06:46:22.286Z,7888.00
2022-09-15T06:47:22.247Z,7704.00
2022-09-15T06:48:24.837Z,7632.00
2022-09-15T06:49:22.251Z,7564.00
2022-09-15T06:50:22.208Z,7436.00
2022-09-15T06:51:22.180Z,6836.00
2022-09-15T06:52:22.170Z,5996.00
2022-09-15T06:53:22.160Z,5748.00
2022-09-15T06:54:22.179Z,6484.00
2022-09-15T06:55:22.175Z,6996.00
2022-09-15T06:56:22.151Z,6612.00
2022-09-15T06:57:22.143Z,6060.00
2022-09-15T06:58:22.152Z,5996.00
2022-09-15T06:59:22.119Z,6372.00
2022-09-15T07:00:22.093Z,7100.00
2022-09-15T07:01:22.088Z,7520.00
2022-09-15T07:02:22.198Z,7300.00
2022-09-15T07:03:22.215Z,6860.00
2022-09-15T07:04:22.042Z,6616.00
2022-09-15T07:05:22.028Z,6544.00
2022-09-15T07:06:22.045Z,6944.00
2022-09-15T07:07:22.012Z,7116.00
2022-09-15T07:08:22.036Z,7320.00
2022-09-15T07:09:21.988Z,7780.00
2022-09-15T07:10:21.990Z,8384.00
2022-09-15T07:11:21.971Z,8852.00
2022-09-15T07:12:21.939Z,9244.00
2022-09-15T07:13:21.991Z,9756.00
2022-09-15T07:14:21.919Z,10452.00
2022-09-15T07:15:21.922Z,11308.00
2022-09-15T07:16:21.985Z,11520.00
2022-09-15T07:17:21.912Z,11772.00
2022-09-15T07:18:21.902Z,13436.00
2022-09-15T07:19:21.909Z,14380.00
2022-09-15T07:20:21.859Z,14260.00
2022-09-15T07:21:21.851Z,14560.00
2022-09-15T07:22:21.852Z,14828.00
2022-09-15T07:23:21.819Z,14820.00
2022-09-15T07:24:21.840Z,14648.00
2022-09-15T07:25:21.798Z,15464.00
2022-09-15T07:26:21.786Z,16820.00
2022-09-15T07:27:21.793Z,18432.00
2022-09-15T07:28:21.769Z,19584.00
2022-09-15T07:29:21.803Z,20448.00
2022-09-15T07:30:21.752Z,20832.00
2022-09-15T07:31:21.768Z,21312.00
2022-09-15T07:32:21.730Z,21728.00
2022-09-15T07:33:21.736Z,22176.00
2022-09-15T07:34:21.753Z,22496.00
2022-09-15T07:35:21.711Z,23200.00
2022-09-15T07:36:21.683Z,22592.00
2022-09-15T07:37:21.677Z,21376.00
2022-09-15T07:38:21.668Z,22080.00
2022-09-15T07:39:21.699Z,21600.00
2022-09-15T07:40:21.731Z,22624.00
2022-09-15T07:41:21.661Z,24000.00
2022-09-15T07:42:21.631Z,24704.00
2022-09-15T07:43:21.614Z,24928.00
2022-09-15T07:44:21.638Z,25120.00
2022-09-15T07:45:21.625Z,25376.00
2022-09-15T07:46:21.570Z,25824.00
2022-09-15T07:47:21.573Z,26080.00
2022-09-15T07:48:25.778Z,26720.00
2022-09-15T07:49:22.588Z,27776.00
2022-09-15T07:50:21.529Z,31040.00
2022-09-15T07:51:21.514Z,32896.00
2022-09-15T07:52:21.510Z,39328.00
2022-09-15T07:53:21.491Z,52768.00
2022-09-15T07:54:23.002Z,36736.00
2022-09-15T07:55:21.462Z,38208.00
2022-09-15T07:56:21.448Z,40512.00
2022-09-15T07:57:21.443Z,34048.00
2022-09-15T07:58:21.421Z,33472.00
2022-09-15T07:59:21.459Z,28768.00
2022-09-15T08:00:21.401Z,28352.00
2022-09-15T08:01:21.433Z,27616.00
2022-09-15T08:02:21.501Z,27680.00
2022-09-15T08:03:21.399Z,27392.00
2022-09-15T08:04:21.419Z,26240.00
2022-09-15T08:05:21.352Z,26432.00
2022-09-15T08:06:21.347Z,25920.00
2022-09-15T08:07:21.322Z,26496.00
2022-09-15T08:08:21.304Z,25952.00
2022-09-15T08:09:21.351Z,26656.00
2022-09-15T08:10:21.349Z,28480.00
2022-09-15T08:11:21.293Z,28960.00
2022-09-15T08:12:21.292Z,28832.00
2022-09-15T08:13:21.280Z,29216.00
2022-09-15T08:14:21.288Z,29376.00
2022-09-15T08:15:21.263Z,28256.00
2022-09-15T08:16:21.271Z,25984.00
2022-09-15T08:17:21.234Z,24032.00
2022-09-15T08:18:21.215Z,25536.00
2022-09-15T08:19:21.247Z,26176.00
2022-09-15T08:20:21.241Z,26400.00
2022-09-15T08:21:21.213Z,26848.00
2022-09-15T08:22:21.160Z,28032.00
2022-09-15T08:23:21.159Z,31136.00
2022-09-15T08:24:21.167Z,31264.00
2022-09-15T08:25:21.132Z,31776.00
2022-09-15T08:26:21.146Z,33120.00
2022-09-15T08:27:21.134Z,42208.00
2022-09-15T08:28:21.087Z,33856.00
2022-09-15T08:29:21.112Z,31776.00
2022-09-15T08:30:21.075Z,33440.00
2022-09-15T08:31:21.112Z,29184.00
2022-09-15T08:32:21.051Z,29312.00
2022-09-15T08:33:21.042Z,28480.00
2022-09-15T08:34:21.066Z,25984.00
2022-09-15T08:35:21.044Z,25728.00
2022-09-15T08:36:21.007Z,27136.00
2022-09-15T08:37:20.987Z,27392.00
2022-09-15T08:38:20.987Z,52800.00
2022-09-15T08:39:21.023Z,63296.00
2022-09-15T08:40:21.120Z,75520.00
2022-09-15T08:41:20.948Z,63680.00
2022-09-15T08:42:20.942Z,57440.00
2022-09-15T08:43:20.933Z,67648.00
2022-09-15T08:44:20.959Z,73568.00
2022-09-15T08:45:20.910Z,78048.00
2022-09-15T08:46:20.918Z,69888.00
2022-09-15T08:47:20.899Z,55584.00
2022-09-15T08:48:20.863Z,43968.00
2022-09-15T08:49:35.766Z,64992.00
2022-09-15T08:50:21.848Z,65696.00
2022-09-15T08:51:20.843Z,50944.00
2022-09-15T08:52:20.819Z,79680.00
2022-09-15T08:53:20.871Z,75904.00
2022-09-15T08:54:20.814Z,51360.00
2022-09-15T08:55:20.782Z,85568.00
2022-09-15T08:56:20.791Z,70080.00
2022-09-15T08:57:20.772Z,47296.00
2022-09-15T08:58:20.786Z,41344.00
2022-09-15T08:59:20.734Z,59936.00
2022-09-15T09:00:20.719Z,69248.00
2022-09-15T09:01:20.763Z,59872.00
2022-09-15T09:02:20.743Z,57856.00
2022-09-15T09:03:20.735Z,53344.00
2022-09-15T09:04:20.684Z,49664.00
2022-09-15T09:05:20.676Z,49472.00
2022-09-15T09:06:20.673Z,47808.00
2022-09-15T09:07:20.674Z,48384.00
2022-09-15T09:08:20.688Z,50208.00
2022-09-15T09:09:20.659Z,49312.00
2022-09-15T09:10:20.619Z,48384.00
2022-09-15T09:11:20.618Z,46912.00
2022-09-15T09:12:20.636Z,47232.00
2022-09-15T09:13:20.633Z,47200.00
2022-09-15T09:14:20.594Z,47808.00
2022-09-15T09:15:20.575Z,45632.00
2022-09-15T09:16:20.654Z,43104.00
2022-09-15T09:17:20.570Z,47296.00
2022-09-15T09:18:20.572Z,45888.00
2022-09-15T09:19:20.543Z,24192.00
2022-09-15T09:20:20.508Z,44768.00
2022-09-15T09:21:20.509Z,37504.00
2022-09-15T09:22:20.488Z,43808.00
2022-09-15T09:23:20.525Z,36384.00
2022-09-15T09:24:20.466Z,45280.00
2022-09-15T09:25:28.463Z,32448.00
2022-09-15T09:26:21.450Z,28192.00
2022-09-15T09:27:20.451Z,26112.00
2022-09-15T09:28:20.481Z,49664.00
2022-09-15T09:29:20.424Z,26656.00
2022-09-15T09:30:20.422Z,27040.00
2022-09-15T09:31:20.446Z,30528.00
2022-09-15T09:32:21.847Z,30048.00
2022-09-15T09:33:20.386Z,29760.00
2022-09-15T09:34:20.375Z,32640.00
2022-09-15T09:35:20.347Z,35872.00
2022-09-15T09:36:20.351Z,41504.00
2022-09-15T09:37:20.330Z,33216.00
2022-09-15T09:38:20.357Z,32992.00
2022-09-15T09:39:20.304Z,36576.00
2022-09-15T09:40:20.373Z,37472.00
2022-09-15T09:41:20.292Z,36800.00
2022-09-15T09:42:20.273Z,36192.00
2022-09-15T09:43:20.291Z,35776.00
2022-09-15T09:44:20.241Z,33088.00
2022-09-15T09:45:20.250Z,31904.00
2022-09-15T09:46:20.293Z,29920.00
2022-09-15T09:47:20.212Z,31296.00
2022-09-15T09:48:20.232Z,46720.00
2022-09-15T09:49:20.194Z,48608.00
2022-09-15T09:50:20.185Z,61216.00
2022-09-15T09:51:20.178Z,53280.00
2022-09-15T09:52:22.077Z,27520.00
2022-09-15T09:53:20.229Z,19904.00
2022-09-15T09:54:20.152Z,16140.00
2022-09-15T09:55:20.131Z,13548.00
2022-09-15T09:56:20.108Z,11900.00
2022-09-15T09:57:20.103Z,10756.00
2022-09-15T09:58:20.166Z,10284.00
2022-09-15T09:59:20.088Z,9564.00
2022-09-15T10:00:20.079Z,8956.00
2022-09-15T10:01:20.139Z,8312.00
2022-09-15T10:02:20.060Z,7880.00
2022-09-15T10:03:20.054Z,7136.00
2022-09-15T10:04:20.035Z,6852.00
2022-09-15T10:05:20.022Z,8052.00
2022-09-15T10:06:20.019Z,10412.00
2022-09-15T10:07:19.985Z,11428.00
2022-09-15T10:08:20.012Z,10912.00
2022-09-15T10:09:19.965Z,11212.00
2022-09-15T10:10:19.964Z,12972.00
2022-09-15T10:11:19.943Z,15520.00
2022-09-15T10:12:19.944Z,18624.00
2022-09-15T10:13:19.933Z,21536.00
2022-09-15T10:14:19.970Z,22144.00
2022-09-15T10:15:19.900Z,21760.00
2022-09-15T10:16:19.935Z,28992.00
2022-09-15T10:17:19.891Z,22400.00
2022-09-15T10:18:19.872Z,24480.00
2022-09-15T10:19:19.888Z,28960.00
2022-09-15T10:20:19.852Z,49504.00
2022-09-15T10:21:19.843Z,46400.00
2022-09-15T10:22:19.855Z,54432.00
2022-09-15T10:23:19.816Z,47392.00
2022-09-15T10:24:19.834Z,29792.00
2022-09-15T10:25:19.788Z,30624.00
2022-09-15T10:26:19.800Z,28576.00
2022-09-15T10:27:19.771Z,49664.00
2022-09-15T10:28:19.769Z,30976.00
2022-09-15T10:29:19.771Z,49088.00
2022-09-15T10:30:19.745Z,53536.00
2022-09-15T10:31:19.763Z,53344.00
2022-09-15T10:32:24.327Z,48576.00
2022-09-15T10:33:20.713Z,47008.00
2022-09-15T10:34:19.717Z,47936.00
2022-09-15T10:35:19.659Z,48640.00
2022-09-15T10:36:19.668Z,45184.00
2022-09-15T10:37:19.646Z,27904.00
2022-09-15T10:38:19.657Z,22592.00
2022-09-15T10:39:19.678Z,19840.00
2022-09-15T10:40:19.691Z,18304.00
2022-09-15T10:41:19.614Z,18272.00
2022-09-15T10:42:19.634Z,20000.00
2022-09-15T10:43:19.579Z,21856.00
2022-09-15T10:44:19.657Z,22336.00
2022-09-15T10:45:19.546Z,21440.00
2022-09-15T10:46:19.634Z,19872.00
2022-09-15T10:47:19.522Z,17408.00
2022-09-15T10:48:19.539Z,16544.00
2022-09-15T10:49:19.551Z,18368.00
2022-09-15T10:50:19.514Z,22336.00
2022-09-15T10:51:19.506Z,25728.00
2022-09-15T10:52:19.512Z,46208.00
2022-09-15T10:53:19.507Z,31104.00
2022-09-15T10:54:19.521Z,27104.00
2022-09-15T10:55:31.801Z,26656.00
2022-09-15T10:56:20.458Z,26912.00
2022-09-15T10:57:19.495Z,28064.00
2022-09-15T10:58:19.433Z,29664.00
2022-09-15T10:59:19.447Z,30688.00
2022-09-15T11:00:19.420Z,30016.00
2022-09-15T11:01:19.412Z,28960.00
2022-09-15T11:02:19.491Z,27392.00
2022-09-15T11:03:19.366Z,26272.00
2022-09-15T11:04:19.381Z,25408.00
2022-09-15T11:05:22.023Z,24512.00
2022-09-15T11:06:19.331Z,24832.00
2022-09-15T11:07:19.304Z,28320.00
2022-09-15T11:08:19.341Z,51584.00
2022-09-15T11:09:19.332Z,51360.00
2022-09-15T11:10:19.284Z,30880.00
2022-09-15T11:11:19.289Z,21664.00
2022-09-15T11:12:19.284Z,19264.00
2022-09-15T11:13:19.242Z,17984.00
2022-09-15T11:14:19.294Z,16944.00
2022-09-15T11:15:19.234Z,15852.00
2022-09-15T11:16:19.285Z,14492.00
2022-09-15T11:17:19.206Z,13764.00
2022-09-15T11:18:19.216Z,12476.00
2022-09-15T11:19:19.239Z,11216.00
2022-09-15T11:20:19.198Z,9476.00
2022-09-15T11:21:19.173Z,8344.00
2022-09-15T11:22:19.176Z,8616.00
2022-09-15T11:23:19.139Z,10328.00
2022-09-15T11:24:19.171Z,12164.00
2022-09-15T11:25:19.121Z,12976.00
2022-09-15T11:26:19.118Z,12900.00
2022-09-15T11:27:19.135Z,12656.00
2022-09-15T11:28:19.100Z,12432.00
2022-09-15T11:29:19.103Z,12312.00
2022-09-15T11:30:19.090Z,11884.00
2022-09-15T11:31:19.088Z,10868.00
2022-09-15T11:32:19.101Z,9748.00
2022-09-15T11:33:19.059Z,9784.00
2022-09-15T11:34:19.087Z,10768.00
2022-09-15T11:35:19.016Z,11576.00
2022-09-15T11:36:19.010Z,11576.00
2022-09-15T11:37:18.976Z,11228.00
2022-09-15T11:38:18.966Z,10240.00
2022-09-15T11:39:18.987Z,9388.00
2022-09-15T11:40:19.076Z,9200.00
2022-09-15T11:41:18.924Z,9268.00
2022-09-15T11:42:18.965Z,8952.00
2022-09-15T11:43:18.917Z,8196.00
2022-09-15T11:44:18.947Z,7772.00
2022-09-15T11:45:18.896Z,7892.00
2022-09-15T11:46:18.981Z,8180.00
2022-09-15T11:47:18.874Z,8468.00
2022-09-15T11:48:18.881Z,8780.00
2022-09-15T11:49:18.893Z,8984.00
2022-09-15T11:50:18.840Z,8032.00
2022-09-15T11:51:18.854Z,6608.00
2022-09-15T11:52:18.875Z,7152.00
2022-09-15T11:53:18.820Z,8620.00
2022-09-15T11:54:18.827Z,10588.00
2022-09-15T11:55:18.778Z,11960.00
2022-09-15T11:56:18.783Z,12748.00
2022-09-15T11:57:18.759Z,13292.00
2022-09-15T11:58:22.005Z,13068.00
2022-09-15T11:59:18.779Z,12168.00
2022-09-15T12:00:18.742Z,14268.00
2022-09-15T12:01:18.713Z,16932.00
2022-09-15T12:02:18.776Z,18496.00
2022-09-15T12:03:18.743Z,19104.00
2022-09-15T12:04:18.734Z,19328.00
2022-09-15T12:05:19.497Z,19872.00
2022-09-15T12:06:18.655Z,20672.00
2022-09-15T12:07:18.658Z,21280.00
2022-09-15T12:08:18.627Z,22112.00
2022-09-15T12:09:18.654Z,23360.00
2022-09-15T12:10:18.618Z,25120.00
2022-09-15T12:11:18.593Z,26400.00
2022-09-15T12:12:18.689Z,26720.00
2022-09-15T12:13:18.585Z,27360.00
2022-09-15T12:14:18.618Z,28864.00
2022-09-15T12:15:18.564Z,31072.00
2022-09-15T12:16:18.621Z,32640.00
2022-09-15T12:17:18.528Z,33792.00
2022-09-15T12:18:37.123Z,32544.00
2022-09-15T12:19:19.546Z,31776.00
2022-09-15T12:20:18.513Z,30496.00
2022-09-15T12:21:18.510Z,29024.00